HAL819 KSMF-PHNL
Flight info
| Callsign | HAL819 |
|---|---|
| Flight time | N/A |
| Altitude | 40000 |
| Route | PYE CINNY ALANN GITLE DIALO R576 DENNS MAGGI3 |
| Aircraft | A332/H-SDE3GHIJ2J3J5M1RVWXY/LB2D1 |
Departure
| Time | 2026-05-08 16:53 |
|---|---|
| Airport | Sacramento International Airport (KSMF) |
Arrival
| Time | N/A |
|---|---|
| Airport | Daniel K. Inouye International Airport (PHNL) |
| Time | Latitude | Longitude | Altitude | Speed | Heading |
|---|---|---|---|---|---|
| 2026-05-08 15:51 | 38.69611 | -121.59082 | 31 ft | 0 kts | 240° |
| 2026-05-08 16:37 | 38.69620 | -121.59062 | 31 ft | 4 kts | 226° |
| 2026-05-08 16:37 | 38.69638 | -121.59045 | 30 ft | 4 kts | 184° |
| 2026-05-08 16:38 | 38.69660 | -121.59050 | 30 ft | 4 kts | 143° |
| 2026-05-08 16:38 | 38.69679 | -121.59073 | 30 ft | 4 kts | 123° |
| 2026-05-08 16:38 | 38.69692 | -121.59102 | 30 ft | 4 kts | 104° |
| 2026-05-08 16:38 | 38.69694 | -121.59119 | 30 ft | 0 kts | 91° |
| 2026-05-08 16:45 | 38.69694 | -121.59118 | 30 ft | 1 kts | 91° |
| 2026-05-08 16:46 | 38.69694 | -121.59100 | 30 ft | 3 kts | 91° |
| 2026-05-08 16:46 | 38.69693 | -121.59058 | 31 ft | 6 kts | 91° |
| 2026-05-08 16:46 | 38.69692 | -121.58995 | 31 ft | 8 kts | 91° |
| 2026-05-08 16:46 | 38.69693 | -121.58914 | 31 ft | 10 kts | 89° |
| 2026-05-08 16:47 | 38.69694 | -121.58814 | 31 ft | 12 kts | 90° |
| 2026-05-08 16:47 | 38.69692 | -121.58703 | 31 ft | 13 kts | 91° |
| 2026-05-08 16:47 | 38.69691 | -121.58669 | 31 ft | 0 kts | 95° |
| 2026-05-08 16:47 | 38.69691 | -121.58665 | 31 ft | 1 kts | 93° |
| 2026-05-08 16:48 | 38.69696 | -121.58648 | 31 ft | 3 kts | 65° |
| 2026-05-08 16:48 | 38.69716 | -121.58630 | 31 ft | 4 kts | 28° |
| 2026-05-08 16:48 | 38.69751 | -121.58604 | 31 ft | 7 kts | 38° |
| 2026-05-08 16:48 | 38.69763 | -121.58543 | 31 ft | 8 kts | 95° |
| 2026-05-08 16:49 | 38.69762 | -121.58467 | 31 ft | 9 kts | 89° |
| 2026-05-08 16:49 | 38.69762 | -121.58373 | 31 ft | 11 kts | 89° |
| 2026-05-08 16:49 | 38.69800 | -121.58291 | 31 ft | 12 kts | 22° |
| 2026-05-08 16:49 | 38.69889 | -121.58285 | 31 ft | 14 kts | 0° |
| 2026-05-08 16:50 | 38.69993 | -121.58284 | 31 ft | 16 kts | 0° |
| 2026-05-08 16:50 | 38.70110 | -121.58282 | 31 ft | 18 kts | 1° |
| 2026-05-08 16:50 | 38.70242 | -121.58279 | 31 ft | 20 kts | 1° |
| 2026-05-08 16:50 | 38.70379 | -121.58276 | 30 ft | 21 kts | 1° |
| 2026-05-08 16:51 | 38.70529 | -121.58273 | 31 ft | 22 kts | 1° |
| 2026-05-08 16:51 | 38.70648 | -121.58269 | 31 ft | 14 kts | 5° |
| 2026-05-08 16:51 | 38.70702 | -121.58180 | 31 ft | 14 kts | 87° |
| 2026-05-08 16:51 | 38.70704 | -121.58060 | 32 ft | 10 kts | 92° |
| 2026-05-08 16:52 | 38.70665 | -121.58007 | 31 ft | 9 kts | 171° |
| 2026-05-08 16:52 | 38.70647 | -121.58007 | 31 ft | 1 kts | 181° |
| 2026-05-08 16:52 | 38.70632 | -121.58007 | 31 ft | 12 kts | 181° |
| 2026-05-08 16:52 | 38.70268 | -121.58012 | 31 ft | 96 kts | 180° |
| 2026-05-08 16:53 | 38.68033 | -121.58029 | 504 ft | 192 kts | 179° |
| 2026-05-08 16:53 | 38.66689 | -121.58031 | 1306 ft | 195 kts | 180° |
| 2026-05-08 16:53 | 38.65336 | -121.58052 | 2219 ft | 195 kts | 180° |
| 2026-05-08 16:54 | 38.63898 | -121.58099 | 2543 ft | 225 kts | 181° |
| 2026-05-08 16:54 | 38.62226 | -121.58152 | 2646 ft | 249 kts | 181° |
| 2026-05-08 16:54 | 38.61067 | -121.58195 | 2913 ft | 244 kts | 181° |
| 2026-05-08 16:54 | 38.58866 | -121.58263 | 3447 ft | 236 kts | 181° |
| 2026-05-08 16:55 | 38.57777 | -121.58287 | 3636 ft | 234 kts | 181° |
| 2026-05-08 16:55 | 38.56110 | -121.58351 | 3700 ft | 242 kts | 186° |
| 2026-05-08 16:55 | 38.54523 | -121.59112 | 3861 ft | 253 kts | 217° |
| 2026-05-08 16:55 | 38.53413 | -121.60943 | 3974 ft | 280 kts | 248° |
| 2026-05-08 16:56 | 38.52941 | -121.63482 | 4009 ft | 310 kts | 260° |
| 2026-05-08 16:56 | 38.52500 | -121.66315 | 4027 ft | 339 kts | 257° |
| 2026-05-08 16:56 | 38.51865 | -121.69340 | 4082 ft | 364 kts | 253° |
| 2026-05-08 16:56 | 38.51059 | -121.72533 | 4279 ft | 382 kts | 251° |
| 2026-05-08 16:57 | 38.50191 | -121.75598 | 5744 ft | 358 kts | 250° |
| 2026-05-08 16:57 | 38.49321 | -121.78495 | 7189 ft | 337 kts | 249° |
| 2026-05-08 16:57 | 38.48476 | -121.81207 | 8477 ft | 320 kts | 248° |
| 2026-05-08 16:57 | 38.47653 | -121.83767 | 9687 ft | 305 kts | 248° |
| 2026-05-08 16:58 | 38.46836 | -121.86232 | 10571 ft | 300 kts | 247° |
| 2026-05-08 16:58 | 38.45979 | -121.88738 | 10766 ft | 318 kts | 246° |
| 2026-05-08 16:58 | 38.45047 | -121.91377 | 10977 ft | 335 kts | 245° |
| 2026-05-08 16:58 | 38.44047 | -121.94136 | 11222 ft | 350 kts | 245° |
| 2026-05-08 16:59 | 38.42991 | -121.96993 | 11491 ft | 364 kts | 245° |
| 2026-05-08 16:59 | 38.41880 | -121.99957 | 11821 ft | 374 kts | 244° |
| 2026-05-08 16:59 | 38.40745 | -122.02958 | 12405 ft | 377 kts | 244° |
| 2026-05-08 16:59 | 38.39588 | -122.05993 | 12989 ft | 381 kts | 244° |
| 2026-05-08 17:00 | 38.38417 | -122.09049 | 13554 ft | 384 kts | 244° |
| 2026-05-08 17:00 | 38.37241 | -122.12109 | 14131 ft | 388 kts | 244° |
| 2026-05-08 17:00 | 38.36033 | -122.15236 | 14669 ft | 391 kts | 244° |
| 2026-05-08 17:00 | 38.34832 | -122.18341 | 15218 ft | 395 kts | 244° |
| 2026-05-08 17:01 | 38.33609 | -122.21489 | 15782 ft | 398 kts | 244° |
| 2026-05-08 17:01 | 38.32365 | -122.24690 | 16318 ft | 402 kts | 244° |
| 2026-05-08 17:01 | 38.31127 | -122.27877 | 16864 ft | 406 kts | 244° |
| 2026-05-08 17:01 | 38.29866 | -122.31117 | 17409 ft | 410 kts | 244° |
| 2026-05-08 17:02 | 38.28596 | -122.34377 | 17938 ft | 414 kts | 244° |
| 2026-05-08 17:02 | 38.27316 | -122.37660 | 18489 ft | 418 kts | 244° |
| 2026-05-08 17:02 | 38.26019 | -122.40987 | 18965 ft | 420 kts | 244° |
| 2026-05-08 17:02 | 38.24697 | -122.44370 | 19454 ft | 424 kts | 244° |
| 2026-05-08 17:03 | 38.23387 | -122.47720 | 19926 ft | 427 kts | 244° |
| 2026-05-08 17:03 | 38.22066 | -122.51094 | 20414 ft | 430 kts | 244° |
| 2026-05-08 17:03 | 38.20718 | -122.54532 | 20905 ft | 433 kts | 244° |
| 2026-05-08 17:03 | 38.19378 | -122.57947 | 21357 ft | 436 kts | 244° |
| 2026-05-08 17:04 | 38.18002 | -122.61445 | 21828 ft | 439 kts | 244° |
| 2026-05-08 17:04 | 38.16640 | -122.64902 | 22299 ft | 442 kts | 244° |
| 2026-05-08 17:04 | 38.15257 | -122.68409 | 22791 ft | 445 kts | 244° |
| 2026-05-08 17:04 | 38.13857 | -122.71955 | 23261 ft | 448 kts | 244° |
| 2026-05-08 17:05 | 38.12457 | -122.75495 | 23723 ft | 452 kts | 244° |
| 2026-05-08 17:05 | 38.11035 | -122.79087 | 24123 ft | 454 kts | 244° |
| 2026-05-08 17:05 | 38.09622 | -122.82649 | 24558 ft | 456 kts | 244° |
| 2026-05-08 17:05 | 38.08143 | -122.86245 | 24949 ft | 459 kts | 239° |
| 2026-05-08 17:06 | 38.06110 | -122.89365 | 25353 ft | 464 kts | 224° |
| 2026-05-08 17:06 | 38.03644 | -122.92064 | 25754 ft | 467 kts | 220° |
| 2026-05-08 17:06 | 38.01140 | -122.94632 | 26170 ft | 469 kts | 220° |
| 2026-05-08 17:06 | 37.98567 | -122.97220 | 26556 ft | 473 kts | 219° |
| 2026-05-08 17:07 | 37.95975 | -122.99796 | 26957 ft | 475 kts | 219° |
| 2026-05-08 17:07 | 37.93355 | -123.02387 | 27361 ft | 478 kts | 219° |
| 2026-05-08 17:07 | 37.90734 | -123.04979 | 27753 ft | 480 kts | 219° |
| 2026-05-08 17:07 | 37.88067 | -123.07623 | 28149 ft | 483 kts | 220° |
| 2026-05-08 17:08 | 37.85418 | -123.10257 | 28512 ft | 486 kts | 220° |
| 2026-05-08 17:08 | 37.82760 | -123.12910 | 28880 ft | 489 kts | 220° |
| 2026-05-08 17:08 | 37.80076 | -123.15596 | 29235 ft | 491 kts | 220° |
| 2026-05-08 17:08 | 37.77425 | -123.18255 | 29754 ft | 490 kts | 220° |
| 2026-05-08 17:09 | 37.74743 | -123.20948 | 30293 ft | 489 kts | 220° |
| 2026-05-08 17:09 | 37.72077 | -123.23631 | 30766 ft | 487 kts | 220° |
| 2026-05-08 17:09 | 37.69451 | -123.26276 | 31263 ft | 485 kts | 220° |
| 2026-05-08 17:09 | 37.66795 | -123.28955 | 31771 ft | 483 kts | 220° |
| 2026-05-08 17:10 | 37.64172 | -123.31598 | 32288 ft | 481 kts | 220° |
| 2026-05-08 17:10 | 37.61586 | -123.34207 | 32815 ft | 479 kts | 220° |
| 2026-05-08 17:10 | 37.59000 | -123.36814 | 33318 ft | 477 kts | 220° |
| 2026-05-08 17:10 | 37.56401 | -123.39437 | 33874 ft | 475 kts | 220° |
| 2026-05-08 17:11 | 37.53806 | -123.42054 | 34380 ft | 473 kts | 220° |
| 2026-05-08 17:11 | 37.51272 | -123.44610 | 34853 ft | 471 kts | 220° |
| 2026-05-08 17:11 | 37.48699 | -123.47203 | 35308 ft | 469 kts | 220° |
| 2026-05-08 17:11 | 37.46151 | -123.49769 | 35786 ft | 468 kts | 220° |
| 2026-05-08 17:12 | 37.43609 | -123.52327 | 36265 ft | 466 kts | 220° |
| 2026-05-08 17:12 | 37.41089 | -123.54861 | 36740 ft | 464 kts | 220° |
| 2026-05-08 17:12 | 37.38562 | -123.57398 | 37221 ft | 463 kts | 220° |
| 2026-05-08 17:12 | 37.36050 | -123.59920 | 37712 ft | 461 kts | 220° |
| 2026-05-08 17:13 | 37.33548 | -123.62431 | 38201 ft | 459 kts | 220° |
| 2026-05-08 17:13 | 37.31063 | -123.64922 | 38689 ft | 458 kts | 220° |
| 2026-05-08 17:13 | 37.28581 | -123.67406 | 39125 ft | 456 kts | 220° |
| 2026-05-08 17:13 | 37.26088 | -123.69900 | 39498 ft | 456 kts | 220° |
| 2026-05-08 17:14 | 37.23630 | -123.72359 | 39826 ft | 455 kts | 220° |
| 2026-05-08 17:14 | 37.21150 | -123.74835 | 40030 ft | 449 kts | 221° |
| 2026-05-08 17:14 | 37.16264 | -123.79711 | 40175 ft | 453 kts | 221° |
| 2026-05-08 17:15 | 37.11307 | -123.84660 | 40189 ft | 458 kts | 221° |
| 2026-05-08 17:15 | 37.06303 | -123.89641 | 40201 ft | 456 kts | 220° |
| 2026-05-08 17:16 | 37.01358 | -123.94553 | 40203 ft | 454 kts | 220° |
| 2026-05-08 17:16 | 36.96412 | -123.99459 | 40207 ft | 454 kts | 220° |
| 2026-05-08 17:17 | 36.91457 | -124.04367 | 40205 ft | 456 kts | 220° |
| 2026-05-08 17:17 | 36.86476 | -124.09289 | 40210 ft | 456 kts | 220° |
| 2026-05-08 17:18 | 36.81506 | -124.14195 | 40210 ft | 455 kts | 220° |
| 2026-05-08 17:18 | 36.76538 | -124.19088 | 40215 ft | 455 kts | 220° |
| 2026-05-08 17:19 | 36.71559 | -124.23986 | 40210 ft | 455 kts | 220° |
| 2026-05-08 17:19 | 36.66582 | -124.28873 | 40220 ft | 456 kts | 220° |
| 2026-05-08 17:20 | 36.61585 | -124.33769 | 40216 ft | 455 kts | 220° |
| 2026-05-08 17:20 | 36.56602 | -124.38643 | 40222 ft | 455 kts | 220° |
| 2026-05-08 17:21 | 36.51619 | -124.43512 | 40224 ft | 456 kts | 220° |
| 2026-05-08 17:21 | 36.46630 | -124.48376 | 40224 ft | 457 kts | 220° |
| 2026-05-08 17:22 | 36.41608 | -124.53266 | 40231 ft | 456 kts | 220° |
| 2026-05-08 17:22 | 36.36602 | -124.58131 | 40238 ft | 456 kts | 220° |
| 2026-05-08 17:23 | 36.31616 | -124.62972 | 40225 ft | 457 kts | 220° |
| 2026-05-08 17:23 | 36.26584 | -124.67848 | 40236 ft | 457 kts | 220° |
| 2026-05-08 17:24 | 36.21565 | -124.72708 | 40228 ft | 457 kts | 221° |
| 2026-05-08 17:24 | 36.19297 | -124.75389 | 40248 ft | 451 kts | 234° |
| 2026-05-08 17:24 | 36.17469 | -124.78517 | 40248 ft | 450 kts | 238° |
| 2026-05-08 17:25 | 36.14587 | -124.83959 | 40242 ft | 452 kts | 239° |
| 2026-05-08 17:25 | 36.10687 | -124.91632 | 40240 ft | 451 kts | 240° |
| 2026-05-08 17:26 | 36.07957 | -124.97108 | 40239 ft | 450 kts | 240° |
| 2026-05-08 17:26 | 36.04684 | -125.03710 | 40242 ft | 450 kts | 241° |
| 2026-05-08 17:27 | 36.01404 | -125.10339 | 40247 ft | 451 kts | 241° |
| 2026-05-08 17:27 | 35.98121 | -125.16976 | 40248 ft | 452 kts | 241° |
| 2026-05-08 17:28 | 35.94837 | -125.23611 | 40249 ft | 451 kts | 241° |
| 2026-05-08 17:28 | 35.91561 | -125.30217 | 40252 ft | 451 kts | 241° |
| 2026-05-08 17:29 | 35.88288 | -125.36813 | 40252 ft | 452 kts | 241° |
| 2026-05-08 17:29 | 35.84991 | -125.43445 | 40252 ft | 453 kts | 241° |
| 2026-05-08 17:30 | 35.81706 | -125.50042 | 40255 ft | 452 kts | 241° |
| 2026-05-08 17:30 | 35.78416 | -125.56633 | 40259 ft | 452 kts | 241° |
| 2026-05-08 17:31 | 35.75119 | -125.63231 | 40262 ft | 453 kts | 241° |
| 2026-05-08 17:31 | 35.71808 | -125.69845 | 40261 ft | 454 kts | 241° |
| 2026-05-08 17:32 | 35.68481 | -125.76481 | 40261 ft | 454 kts | 241° |
| 2026-05-08 17:32 | 35.65158 | -125.83090 | 40262 ft | 454 kts | 241° |
| 2026-05-08 17:33 | 35.61825 | -125.89714 | 40262 ft | 455 kts | 242° |
| 2026-05-08 17:33 | 35.58640 | -125.96412 | 40266 ft | 455 kts | 244° |
| 2026-05-08 17:34 | 35.55545 | -126.03172 | 40266 ft | 455 kts | 244° |
| 2026-05-08 17:34 | 35.52461 | -126.09954 | 40270 ft | 454 kts | 244° |
| 2026-05-08 17:35 | 35.49375 | -126.16748 | 40268 ft | 454 kts | 244° |
| 2026-05-08 17:35 | 35.46304 | -126.23504 | 40273 ft | 455 kts | 244° |
| 2026-05-08 17:36 | 35.43218 | -126.30269 | 40244 ft | 452 kts | 244° |
| 2026-05-08 17:36 | 35.40146 | -126.37000 | 40268 ft | 451 kts | 244° |
| 2026-05-08 17:37 | 35.37083 | -126.43705 | 40276 ft | 452 kts | 244° |
| 2026-05-08 17:37 | 35.34007 | -126.50426 | 40281 ft | 453 kts | 244° |
| 2026-05-08 17:38 | 35.30929 | -126.57136 | 40282 ft | 452 kts | 244° |
| 2026-05-08 17:38 | 35.27848 | -126.63841 | 40280 ft | 451 kts | 244° |
| 2026-05-08 17:39 | 35.24765 | -126.70533 | 40282 ft | 451 kts | 244° |
| 2026-05-08 17:39 | 35.21671 | -126.77241 | 40284 ft | 452 kts | 244° |
| 2026-05-08 17:40 | 35.18579 | -126.83928 | 40287 ft | 452 kts | 244° |
| 2026-05-08 17:40 | 35.15500 | -126.90575 | 40286 ft | 451 kts | 244° |
| 2026-05-08 17:41 | 35.12403 | -126.97246 | 40286 ft | 450 kts | 244° |
| 2026-05-08 17:41 | 35.09289 | -127.03943 | 40288 ft | 451 kts | 244° |
| 2026-05-08 17:42 | 35.06189 | -127.10596 | 40287 ft | 451 kts | 244° |
| 2026-05-08 17:42 | 35.03090 | -127.17235 | 40288 ft | 451 kts | 244° |
| 2026-05-08 17:43 | 34.99985 | -127.23871 | 40289 ft | 450 kts | 244° |
| 2026-05-08 17:43 | 34.96888 | -127.30478 | 40289 ft | 450 kts | 244° |
| 2026-05-08 17:44 | 34.93770 | -127.37119 | 40293 ft | 450 kts | 244° |
| 2026-05-08 17:44 | 34.90652 | -127.43748 | 40293 ft | 450 kts | 244° |
| 2026-05-08 17:45 | 34.87546 | -127.50337 | 40294 ft | 450 kts | 244° |
| 2026-05-08 17:45 | 34.84433 | -127.56929 | 40294 ft | 449 kts | 243° |
| 2026-05-08 17:46 | 34.81312 | -127.63522 | 40296 ft | 450 kts | 243° |
| 2026-05-08 17:46 | 34.78180 | -127.70131 | 40298 ft | 450 kts | 243° |
| 2026-05-08 17:47 | 34.75039 | -127.76742 | 40297 ft | 450 kts | 243° |
| 2026-05-08 17:47 | 34.72429 | -127.82228 | 40297 ft | 449 kts | 243° |
| 2026-05-08 17:48 | 34.68787 | -127.89866 | 40303 ft | 448 kts | 243° |
| 2026-05-08 17:48 | 34.65638 | -127.96459 | 40300 ft | 449 kts | 243° |
| 2026-05-08 17:49 | 34.62512 | -128.02991 | 40302 ft | 449 kts | 243° |
| 2026-05-08 17:49 | 34.59362 | -128.09562 | 40300 ft | 449 kts | 243° |
| 2026-05-08 17:50 | 34.56213 | -128.16113 | 40301 ft | 448 kts | 243° |
| 2026-05-08 17:50 | 34.53074 | -128.22637 | 40306 ft | 448 kts | 243° |
| 2026-05-08 17:51 | 34.49925 | -128.29169 | 40310 ft | 449 kts | 243° |
| 2026-05-08 17:51 | 34.46771 | -128.35699 | 40303 ft | 449 kts | 243° |
| 2026-05-08 17:52 | 34.43612 | -128.42226 | 40306 ft | 448 kts | 243° |
| 2026-05-08 17:53 | 34.38899 | -128.51944 | 40302 ft | 448 kts | 243° |
| 2026-05-08 17:53 | 34.35727 | -128.58467 | 40304 ft | 449 kts | 243° |
| 2026-05-08 17:54 | 34.32548 | -128.64994 | 40318 ft | 448 kts | 243° |
| 2026-05-08 17:54 | 34.29391 | -128.71461 | 40318 ft | 447 kts | 243° |
| 2026-05-08 17:55 | 34.26215 | -128.77958 | 40312 ft | 447 kts | 243° |
| 2026-05-08 17:55 | 34.23051 | -128.84421 | 40315 ft | 448 kts | 243° |
| 2026-05-08 17:56 | 34.19853 | -128.90938 | 40311 ft | 448 kts | 242° |
| 2026-05-08 17:56 | 34.16690 | -128.97373 | 40315 ft | 448 kts | 242° |
| 2026-05-08 17:57 | 34.13509 | -129.03834 | 40314 ft | 447 kts | 242° |
| 2026-05-08 17:57 | 34.10327 | -129.10283 | 40320 ft | 447 kts | 242° |
| 2026-05-08 17:58 | 34.07136 | -129.16740 | 40317 ft | 448 kts | 242° |
| 2026-05-08 17:58 | 34.04473 | -129.22120 | 40311 ft | 447 kts | 242° |
| 2026-05-08 17:59 | 34.01289 | -129.28540 | 40310 ft | 447 kts | 242° |
| 2026-05-08 17:59 | 33.98083 | -129.34995 | 40315 ft | 447 kts | 242° |
| 2026-05-08 18:00 | 33.94885 | -129.41420 | 40318 ft | 447 kts | 242° |
| 2026-05-08 18:00 | 33.90081 | -129.51050 | 40316 ft | 446 kts | 242° |
| 2026-05-08 18:01 | 33.86885 | -129.57443 | 40316 ft | 446 kts | 242° |
| 2026-05-08 18:01 | 33.83665 | -129.63874 | 40319 ft | 447 kts | 242° |
| 2026-05-08 18:02 | 33.80453 | -129.70278 | 40315 ft | 447 kts | 242° |
| 2026-05-08 18:02 | 33.77239 | -129.76673 | 40313 ft | 446 kts | 242° |
| 2026-05-08 18:03 | 33.74021 | -129.83064 | 40317 ft | 446 kts | 242° |
| 2026-05-08 18:03 | 33.70814 | -129.89424 | 40315 ft | 446 kts | 241° |
| 2026-05-08 18:04 | 33.67599 | -129.95785 | 40313 ft | 446 kts | 241° |
| 2026-05-08 18:04 | 33.64378 | -130.02150 | 40319 ft | 446 kts | 241° |
| 2026-05-08 18:05 | 33.61142 | -130.08533 | 40316 ft | 446 kts | 241° |
| 2026-05-08 18:05 | 33.57934 | -130.14849 | 40317 ft | 445 kts | 241° |
| 2026-05-08 18:06 | 33.54694 | -130.21216 | 40323 ft | 446 kts | 241° |
| 2026-05-08 18:06 | 33.51471 | -130.27541 | 40318 ft | 446 kts | 241° |
| 2026-05-08 18:07 | 33.48218 | -130.33909 | 40319 ft | 446 kts | 241° |
| 2026-05-08 18:07 | 33.44994 | -130.40213 | 40319 ft | 445 kts | 241° |
| 2026-05-08 18:08 | 33.41749 | -130.46547 | 40320 ft | 445 kts | 241° |
| 2026-05-08 18:08 | 33.38500 | -130.52876 | 40319 ft | 446 kts | 241° |
| 2026-05-08 18:09 | 33.35243 | -130.59211 | 40318 ft | 446 kts | 240° |
| 2026-05-08 18:09 | 33.32001 | -130.65503 | 40318 ft | 445 kts | 240° |
| 2026-05-08 18:10 | 33.28761 | -130.71784 | 40320 ft | 445 kts | 240° |
| 2026-05-08 18:10 | 33.25516 | -130.78066 | 40319 ft | 445 kts | 240° |
| 2026-05-08 18:11 | 33.22245 | -130.84383 | 40317 ft | 446 kts | 240° |
| 2026-05-08 18:11 | 33.18987 | -130.90666 | 40316 ft | 445 kts | 240° |
| 2026-05-08 18:12 | 33.15721 | -130.96950 | 40320 ft | 444 kts | 240° |
| 2026-05-08 18:12 | 33.12452 | -131.03232 | 40319 ft | 444 kts | 240° |
| 2026-05-08 18:13 | 33.09187 | -131.09495 | 40320 ft | 445 kts | 240° |
| 2026-05-08 18:13 | 33.05909 | -131.15773 | 40320 ft | 445 kts | 240° |
| 2026-05-08 18:14 | 33.02640 | -131.22021 | 40317 ft | 444 kts | 240° |
| 2026-05-08 18:14 | 32.99363 | -131.28277 | 40322 ft | 444 kts | 240° |
| 2026-05-08 18:15 | 32.96085 | -131.34523 | 40321 ft | 444 kts | 240° |
| 2026-05-08 18:15 | 32.92809 | -131.40753 | 40320 ft | 445 kts | 240° |
| 2026-05-08 18:16 | 32.89532 | -131.46977 | 40320 ft | 445 kts | 240° |
| 2026-05-08 18:16 | 32.86239 | -131.53220 | 40321 ft | 444 kts | 240° |
| 2026-05-08 18:17 | 32.82950 | -131.59443 | 40323 ft | 444 kts | 240° |
| 2026-05-08 18:17 | 32.79662 | -131.65656 | 40322 ft | 444 kts | 239° |
| 2026-05-08 18:18 | 32.76363 | -131.71878 | 40321 ft | 445 kts | 239° |
| 2026-05-08 18:18 | 32.73068 | -131.78083 | 40322 ft | 444 kts | 239° |
| 2026-05-08 18:19 | 32.69779 | -131.84265 | 40320 ft | 443 kts | 239° |
| 2026-05-08 18:19 | 32.66456 | -131.90501 | 40324 ft | 444 kts | 239° |
| 2026-05-08 18:20 | 32.63146 | -131.96702 | 40320 ft | 444 kts | 239° |
| 2026-05-08 18:20 | 32.59844 | -132.02879 | 40322 ft | 444 kts | 239° |
| 2026-05-08 18:21 | 32.56535 | -132.09057 | 40324 ft | 443 kts | 239° |
| 2026-05-08 18:21 | 32.53234 | -132.15211 | 40321 ft | 443 kts | 239° |
| 2026-05-08 18:22 | 32.49925 | -132.21370 | 40322 ft | 444 kts | 239° |
| 2026-05-08 18:22 | 32.46598 | -132.27555 | 40319 ft | 444 kts | 239° |
| 2026-05-08 18:23 | 32.43271 | -132.33729 | 40320 ft | 444 kts | 239° |
| 2026-05-08 18:23 | 32.39946 | -132.39886 | 40323 ft | 443 kts | 239° |
| 2026-05-08 18:24 | 32.36636 | -132.46008 | 40321 ft | 443 kts | 239° |
| 2026-05-08 18:24 | 32.33303 | -132.52164 | 40321 ft | 444 kts | 239° |
| 2026-05-08 18:25 | 32.29974 | -132.58301 | 40321 ft | 444 kts | 239° |
| 2026-05-08 18:25 | 32.26623 | -132.64468 | 40325 ft | 443 kts | 239° |
| 2026-05-08 18:26 | 32.23288 | -132.70592 | 40321 ft | 443 kts | 239° |
| 2026-05-08 18:26 | 32.19951 | -132.76717 | 40322 ft | 443 kts | 239° |
| 2026-05-08 18:27 | 32.17237 | -132.81818 | 40320 ft | 443 kts | 240° |
| 2026-05-08 18:27 | 32.13606 | -132.89145 | 40321 ft | 442 kts | 241° |
| 2026-05-08 18:28 | 32.10536 | -132.95456 | 40322 ft | 442 kts | 241° |
| 2026-05-08 18:28 | 32.07489 | -133.01740 | 40322 ft | 442 kts | 241° |
| 2026-05-08 18:29 | 32.04428 | -133.08053 | 40321 ft | 442 kts | 241° |
| 2026-05-08 18:29 | 32.01885 | -133.13291 | 40323 ft | 442 kts | 241° |
| 2026-05-08 18:30 | 31.98319 | -133.20624 | 40319 ft | 442 kts | 241° |
| 2026-05-08 18:30 | 31.95761 | -133.25880 | 40323 ft | 442 kts | 241° |
| 2026-05-08 18:31 | 31.92693 | -133.32172 | 40319 ft | 442 kts | 241° |
| 2026-05-08 18:31 | 31.89625 | -133.38452 | 40323 ft | 442 kts | 241° |
| 2026-05-08 18:32 | 31.86550 | -133.44737 | 40324 ft | 442 kts | 241° |
| 2026-05-08 18:32 | 31.83486 | -133.50992 | 40323 ft | 442 kts | 241° |
| 2026-05-08 18:33 | 31.80409 | -133.57261 | 40323 ft | 442 kts | 241° |
| 2026-05-08 18:33 | 31.77340 | -133.63503 | 40322 ft | 442 kts | 241° |
| 2026-05-08 18:34 | 31.74257 | -133.69764 | 40323 ft | 442 kts | 240° |
| 2026-05-08 18:34 | 31.71175 | -133.76011 | 40325 ft | 442 kts | 240° |
| 2026-05-08 18:35 | 31.68073 | -133.82289 | 40325 ft | 442 kts | 240° |
| 2026-05-08 18:35 | 31.64992 | -133.88513 | 40320 ft | 442 kts | 240° |
| 2026-05-08 18:36 | 31.61920 | -133.94713 | 40321 ft | 442 kts | 240° |
| 2026-05-08 18:36 | 31.58814 | -134.00967 | 40320 ft | 442 kts | 240° |
| 2026-05-08 18:37 | 31.55698 | -134.07231 | 40324 ft | 442 kts | 240° |
| 2026-05-08 18:37 | 31.52607 | -134.13437 | 40324 ft | 442 kts | 240° |
| 2026-05-08 18:38 | 31.49499 | -134.19665 | 40324 ft | 442 kts | 240° |
| 2026-05-08 18:38 | 31.46407 | -134.25852 | 40325 ft | 442 kts | 240° |
| 2026-05-08 18:39 | 31.43301 | -134.32057 | 40325 ft | 442 kts | 240° |
| 2026-05-08 18:39 | 31.40182 | -134.38280 | 40325 ft | 441 kts | 240° |
| 2026-05-08 18:40 | 31.37077 | -134.44461 | 40327 ft | 441 kts | 240° |
| 2026-05-08 18:40 | 31.33948 | -134.50681 | 40322 ft | 441 kts | 239° |
| 2026-05-08 18:41 | 31.30835 | -134.56858 | 40323 ft | 442 kts | 239° |
| 2026-05-08 18:41 | 31.27702 | -134.63066 | 40319 ft | 442 kts | 239° |
| 2026-05-08 18:42 | 31.24576 | -134.69250 | 40322 ft | 441 kts | 239° |
| 2026-05-08 18:42 | 31.21454 | -134.75417 | 40319 ft | 441 kts | 239° |
| 2026-05-08 18:43 | 31.18316 | -134.81606 | 40319 ft | 441 kts | 239° |
| 2026-05-08 18:43 | 31.15185 | -134.87769 | 40320 ft | 442 kts | 239° |
| 2026-05-08 18:44 | 31.12048 | -134.93936 | 40321 ft | 442 kts | 239° |
| 2026-05-08 18:44 | 31.08905 | -135.00104 | 40324 ft | 441 kts | 239° |
| 2026-05-08 18:45 | 31.05759 | -135.06267 | 40320 ft | 441 kts | 239° |
| 2026-05-08 18:45 | 31.02618 | -135.12412 | 40318 ft | 442 kts | 239° |
| 2026-05-08 18:46 | 30.99471 | -135.18558 | 40317 ft | 442 kts | 239° |
| 2026-05-08 18:46 | 30.96320 | -135.24703 | 40320 ft | 441 kts | 239° |
| 2026-05-08 18:47 | 30.93162 | -135.30850 | 40320 ft | 441 kts | 239° |
| 2026-05-08 18:47 | 30.90020 | -135.36958 | 40316 ft | 441 kts | 238° |
| 2026-05-08 18:48 | 30.86846 | -135.43118 | 40317 ft | 442 kts | 238° |
| 2026-05-08 18:48 | 30.83684 | -135.49246 | 40317 ft | 442 kts | 238° |
| 2026-05-08 18:49 | 30.80525 | -135.55358 | 40317 ft | 441 kts | 238° |
| 2026-05-08 18:49 | 30.77355 | -135.61481 | 40316 ft | 441 kts | 238° |
| 2026-05-08 18:50 | 30.74178 | -135.67608 | 40319 ft | 441 kts | 238° |
| 2026-05-08 18:50 | 30.71004 | -135.73720 | 40317 ft | 442 kts | 238° |
| 2026-05-08 18:51 | 30.67830 | -135.79822 | 40318 ft | 442 kts | 238° |
| 2026-05-08 18:51 | 30.64646 | -135.85934 | 40316 ft | 441 kts | 238° |
| 2026-05-08 18:52 | 30.61459 | -135.92042 | 40318 ft | 441 kts | 238° |
| 2026-05-08 18:52 | 30.58261 | -135.98163 | 40318 ft | 442 kts | 238° |
| 2026-05-08 18:53 | 30.55067 | -136.04265 | 40319 ft | 442 kts | 238° |
| 2026-05-08 18:53 | 30.51874 | -136.10355 | 40318 ft | 442 kts | 238° |
| 2026-05-08 18:54 | 30.48674 | -136.16450 | 40318 ft | 441 kts | 238° |
| 2026-05-08 18:54 | 30.45494 | -136.22499 | 40317 ft | 441 kts | 238° |
| 2026-05-08 18:55 | 30.40690 | -136.31618 | 40314 ft | 442 kts | 238° |
| 2026-05-08 18:56 | 30.37466 | -136.37726 | 40314 ft | 442 kts | 238° |
| 2026-05-08 18:56 | 30.34269 | -136.43773 | 40317 ft | 443 kts | 237° |
| 2026-05-08 18:57 | 30.31030 | -136.49891 | 40313 ft | 442 kts | 237° |
| 2026-05-08 18:57 | 30.27817 | -136.55949 | 40314 ft | 441 kts | 237° |
| 2026-05-08 18:58 | 30.24604 | -136.61999 | 40315 ft | 442 kts | 237° |
| 2026-05-08 18:58 | 30.21379 | -136.68061 | 40320 ft | 443 kts | 237° |
| 2026-05-08 18:59 | 30.18151 | -136.74122 | 40312 ft | 442 kts | 237° |
| 2026-05-08 18:59 | 30.14927 | -136.80166 | 40313 ft | 442 kts | 237° |
| 2026-05-08 19:00 | 30.12223 | -136.85227 | 40312 ft | 443 kts | 237° |
| 2026-05-08 19:00 | 30.08970 | -136.91307 | 40307 ft | 444 kts | 237° |
| 2026-05-08 19:01 | 30.05743 | -136.97332 | 40310 ft | 443 kts | 237° |
| 2026-05-08 19:01 | 30.02492 | -137.03390 | 40313 ft | 443 kts | 237° |
| 2026-05-08 19:02 | 29.99241 | -137.09438 | 40309 ft | 443 kts | 237° |
| 2026-05-08 19:02 | 29.95996 | -137.15467 | 40309 ft | 444 kts | 237° |
| 2026-05-08 19:03 | 29.92717 | -137.21552 | 40311 ft | 444 kts | 237° |
| 2026-05-08 19:03 | 29.89453 | -137.27598 | 40310 ft | 444 kts | 237° |
| 2026-05-08 19:04 | 29.86196 | -137.33621 | 40304 ft | 444 kts | 237° |
| 2026-05-08 19:04 | 29.82920 | -137.39671 | 40304 ft | 444 kts | 237° |
| 2026-05-08 19:05 | 29.79649 | -137.45704 | 40306 ft | 444 kts | 237° |
| 2026-05-08 19:05 | 29.76377 | -137.51727 | 40304 ft | 444 kts | 237° |
| 2026-05-08 19:06 | 29.73093 | -137.57767 | 40306 ft | 444 kts | 237° |
| 2026-05-08 19:06 | 29.69823 | -137.63769 | 40305 ft | 445 kts | 237° |
| 2026-05-08 19:07 | 29.66528 | -137.69810 | 40306 ft | 444 kts | 237° |
| 2026-05-08 19:07 | 29.63247 | -137.75815 | 40307 ft | 444 kts | 237° |
| 2026-05-08 19:08 | 29.59956 | -137.81830 | 40304 ft | 445 kts | 236° |
| 2026-05-08 19:08 | 29.56640 | -137.87883 | 40303 ft | 446 kts | 236° |
| 2026-05-08 19:09 | 29.53355 | -137.93869 | 40305 ft | 446 kts | 236° |
| 2026-05-08 19:09 | 29.50045 | -137.99893 | 40304 ft | 445 kts | 236° |
| 2026-05-08 19:10 | 29.46726 | -138.05923 | 40304 ft | 445 kts | 236° |
| 2026-05-08 19:10 | 29.43415 | -138.11931 | 40306 ft | 446 kts | 236° |
| 2026-05-08 19:11 | 29.40088 | -138.17960 | 40302 ft | 447 kts | 236° |
| 2026-05-08 19:11 | 29.36778 | -138.23946 | 40301 ft | 446 kts | 236° |
| 2026-05-08 19:12 | 29.33443 | -138.29971 | 40300 ft | 446 kts | 236° |
| 2026-05-08 19:12 | 29.30126 | -138.35953 | 40299 ft | 446 kts | 236° |
| 2026-05-08 19:13 | 29.26775 | -138.41989 | 40297 ft | 447 kts | 236° |
| 2026-05-08 19:13 | 29.23431 | -138.48002 | 40293 ft | 447 kts | 236° |
| 2026-05-08 19:14 | 29.20084 | -138.54013 | 40295 ft | 447 kts | 236° |
| 2026-05-08 19:14 | 29.16747 | -138.59996 | 40293 ft | 447 kts | 236° |
| 2026-05-08 19:15 | 29.13404 | -138.65983 | 40295 ft | 447 kts | 236° |
| 2026-05-08 19:15 | 29.10029 | -138.72019 | 40291 ft | 448 kts | 236° |
| 2026-05-08 19:16 | 29.06685 | -138.77989 | 40292 ft | 448 kts | 236° |
| 2026-05-08 19:16 | 29.03320 | -138.83989 | 40291 ft | 448 kts | 236° |
| 2026-05-08 19:17 | 28.99953 | -138.89984 | 40290 ft | 448 kts | 236° |
| 2026-05-08 19:17 | 28.96584 | -138.95972 | 40294 ft | 448 kts | 236° |
| 2026-05-08 19:18 | 28.93211 | -139.01959 | 40292 ft | 448 kts | 236° |
| 2026-05-08 19:18 | 28.89843 | -139.07933 | 40292 ft | 449 kts | 236° |
| 2026-05-08 19:19 | 28.86443 | -139.13953 | 40293 ft | 449 kts | 236° |
| 2026-05-08 19:19 | 28.83075 | -139.19906 | 40289 ft | 449 kts | 236° |
| 2026-05-08 19:20 | 28.79681 | -139.25897 | 40288 ft | 449 kts | 236° |
| 2026-05-08 19:20 | 28.76273 | -139.31906 | 40289 ft | 449 kts | 236° |
| 2026-05-08 19:21 | 28.72886 | -139.37873 | 40287 ft | 449 kts | 236° |
| 2026-05-08 19:21 | 28.69934 | -139.44138 | 40288 ft | 450 kts | 244° |
| 2026-05-08 19:22 | 28.67394 | -139.50672 | 40281 ft | 452 kts | 245° |
| 2026-05-08 19:22 | 28.64908 | -139.57269 | 40286 ft | 452 kts | 245° |
| 2026-05-08 19:23 | 28.62459 | -139.63844 | 40286 ft | 451 kts | 246° |
| 2026-05-08 19:23 | 28.60023 | -139.70404 | 40285 ft | 451 kts | 246° |
| 2026-05-08 19:24 | 28.57586 | -139.76969 | 40283 ft | 452 kts | 246° |
| 2026-05-08 19:24 | 28.55126 | -139.83598 | 40282 ft | 452 kts | 246° |
| 2026-05-08 19:25 | 28.52688 | -139.90161 | 40279 ft | 451 kts | 246° |
| 2026-05-08 19:25 | 28.50252 | -139.96714 | 40279 ft | 451 kts | 246° |
| 2026-05-08 19:26 | 28.47802 | -140.03292 | 40279 ft | 451 kts | 246° |
| 2026-05-08 19:26 | 28.45347 | -140.09876 | 40279 ft | 451 kts | 246° |
| 2026-05-08 19:27 | 28.42887 | -140.16461 | 40279 ft | 451 kts | 246° |
| 2026-05-08 19:27 | 28.40438 | -140.23009 | 40279 ft | 451 kts | 246° |
| 2026-05-08 19:28 | 28.37992 | -140.29537 | 40279 ft | 451 kts | 246° |
| 2026-05-08 19:28 | 28.35523 | -140.36115 | 40277 ft | 451 kts | 246° |
| 2026-05-08 19:29 | 28.33058 | -140.42672 | 40275 ft | 451 kts | 246° |
| 2026-05-08 19:29 | 28.30580 | -140.49254 | 40278 ft | 451 kts | 246° |
| 2026-05-08 19:30 | 28.28116 | -140.55786 | 40274 ft | 451 kts | 245° |
| 2026-05-08 19:30 | 28.25654 | -140.62304 | 40277 ft | 451 kts | 245° |
| 2026-05-08 19:31 | 28.23180 | -140.68842 | 40275 ft | 451 kts | 245° |
| 2026-05-08 19:31 | 28.20701 | -140.75382 | 40276 ft | 451 kts | 245° |
| 2026-05-08 19:32 | 28.18628 | -140.80840 | 40275 ft | 451 kts | 245° |
| 2026-05-08 19:32 | 28.16138 | -140.87389 | 40274 ft | 451 kts | 245° |
| 2026-05-08 19:33 | 28.13665 | -140.93881 | 40274 ft | 450 kts | 245° |
| 2026-05-08 19:33 | 28.11165 | -141.00432 | 40272 ft | 451 kts | 245° |
| 2026-05-08 19:34 | 28.08673 | -141.06956 | 40272 ft | 451 kts | 245° |
| 2026-05-08 19:34 | 28.06177 | -141.13476 | 40269 ft | 451 kts | 245° |
| 2026-05-08 19:35 | 28.03669 | -141.20016 | 40269 ft | 450 kts | 245° |
| 2026-05-08 19:35 | 28.01183 | -141.26489 | 40269 ft | 451 kts | 245° |
| 2026-05-08 19:36 | 27.98670 | -141.33019 | 40267 ft | 451 kts | 245° |
| 2026-05-08 19:36 | 27.96168 | -141.39510 | 40267 ft | 451 kts | 245° |
| 2026-05-08 19:37 | 27.93648 | -141.46039 | 40267 ft | 451 kts | 245° |
| 2026-05-08 19:37 | 27.91147 | -141.52507 | 40265 ft | 451 kts | 245° |
| 2026-05-08 19:38 | 27.88625 | -141.59017 | 40263 ft | 451 kts | 245° |
| 2026-05-08 19:38 | 27.86105 | -141.65514 | 40265 ft | 451 kts | 245° |
| 2026-05-08 19:39 | 27.83583 | -141.72004 | 40264 ft | 451 kts | 245° |
| 2026-05-08 19:39 | 27.81050 | -141.78513 | 40264 ft | 451 kts | 245° |
| 2026-05-08 19:40 | 27.78524 | -141.84991 | 40265 ft | 451 kts | 245° |
| 2026-05-08 19:40 | 27.75997 | -141.91461 | 40264 ft | 451 kts | 245° |
| 2026-05-08 19:41 | 27.73452 | -141.97964 | 40263 ft | 451 kts | 245° |
| 2026-05-08 19:41 | 27.70922 | -142.04423 | 40262 ft | 450 kts | 245° |
| 2026-05-08 19:42 | 27.68389 | -142.10877 | 40262 ft | 450 kts | 245° |
| 2026-05-08 19:42 | 27.66688 | -142.15206 | 40263 ft | 450 kts | 245° |
| 2026-05-08 19:43 | 27.60747 | -142.30285 | 40257 ft | 451 kts | 245° |
| 2026-05-08 19:44 | 27.58195 | -142.36742 | 40257 ft | 450 kts | 245° |
| 2026-05-08 19:44 | 27.56553 | -142.40892 | 40257 ft | 450 kts | 245° |
| 2026-05-08 19:45 | 27.53246 | -142.49239 | 40257 ft | 450 kts | 245° |
| 2026-05-08 19:45 | 27.50688 | -142.55682 | 40257 ft | 451 kts | 245° |
| 2026-05-08 19:46 | 27.48139 | -142.62094 | 40257 ft | 450 kts | 245° |
| 2026-05-08 19:46 | 27.45988 | -142.67494 | 40254 ft | 450 kts | 245° |